PWSweather.com
Personal Weather Stations
Station Observations
WESTON01
WestonSuperMareGB BS22 8RT

WestonSuperMareGB BS22 8RT

Lat: 51.351508, Lon: -2.933373

Elevation: 15

Station Type: Fine Offset WH1080

http://www.westonweather.co.uk

Latest ConditionsUpdated 7:15:00 PM GMT Thursday, Oct 18, 2018
Currently Today's Max Today's Min Today's Average
Temperature 47.8°F8.8°C 62.3°F16.8°C 44.9°F7.2°C 52.7°F11.5°C
Dew Point 42.5°F5.8°C 51.3°F10.7°C 40.6°F4.8°C 45.8°F7.7°C
Winds 0.9 mph E1.4 kmh E 8.8 mph -14.2 kmh - - 4.9 mph 7.9 kmh
Wind Gusts 2.7 mph4.3 kmh 13.7 mph22.0 kmh - -
Humidity 82% 87% 65% 78%
Pressure 30.24 in1024.0 mb 30.27 in1025.1 mb 30.21 in1023.0 mb -
Hour Temp Dew Point Humidity Winds Wind Gusts Pressure Precip Precip Rate Daily Precip Total
07:15 PM 47.8°F8.8°C 42.5°F5.8°C 82% 0.9 mph E1.4 kmh E 2.7 mph4.3 kmh 30.24 in1024.0 mb 0.00 in0.0 mm 0.00 in0.0 mm 0.00 in0.0 mm
07:10 PM 48.1°F8.9°C 42.9°F6.1°C 82% 1.6 mph E2.6 kmh E 3.3 mph5.3 kmh 30.24 in1024.0 mb 0.00 in0.0 mm 0.00 in0.0 mm 0.00 in0.0 mm
07:05 PM 48.3°F9.1°C 43.0°F6.1°C 82% 2.1 mph E3.4 kmh E 3.6 mph5.8 kmh 30.24 in1024.0 mb 0.00 in0.0 mm 0.00 in0.0 mm 0.00 in0.0 mm
07:00 PM 48.5°F9.2°C 43.2°F6.2°C 82% 2.3 mph ENE3.7 kmh ENE 3.6 mph5.8 kmh 30.24 in1024.0 mb 0.00 in0.0 mm 0.00 in0.0 mm 0.00 in0.0 mm
06:55 PM 48.7°F9.3°C 43.1°F6.2°C 81% 2.1 mph ENE3.4 kmh ENE 4.2 mph6.8 kmh 30.24 in1024.0 mb 0.00 in0.0 mm 0.00 in0.0 mm 0.00 in0.0 mm
06:50 PM 48.8°F9.3°C 43.3°F6.3°C 81% 2.2 mph ENE3.5 kmh ENE 4.2 mph6.8 kmh 30.24 in1024.0 mb 0.00 in0.0 mm 0.00 in0.0 mm 0.00 in0.0 mm
06:45 PM 48.8°F9.3°C 42.9°F6.1°C 80% 2.2 mph ENE3.5 kmh ENE 3.6 mph5.8 kmh 30.24 in1024.0 mb 0.00 in0.0 mm 0.00 in0.0 mm 0.00 in0.0 mm
06:40 PM 49.0°F9.4°C 43.1°F6.2°C 80% 2.1 mph ENE3.4 kmh ENE 3.3 mph5.3 kmh 30.24 in1024.0 mb 0.00 in0.0 mm 0.00 in0.0 mm 0.00 in0.0 mm
06:35 PM 49.2°F9.6°C 43.3°F6.3°C 80% 3.1 mph ENE5.0 kmh ENE 3.9 mph6.3 kmh 30.24 in1024.0 mb 0.00 in0.0 mm 0.00 in0.0 mm 0.00 in0.0 mm
06:30 PM 49.5°F9.7°C 43.3°F6.3°C 79% 3.1 mph ENE5.0 kmh ENE 4.8 mph7.7 kmh 30.24 in1024.0 mb 0.00 in0.0 mm 0.00 in0.0 mm 0.00 in0.0 mm
06:25 PM 49.5°F9.7°C 43.3°F6.3°C 79% 2.6 mph ENE4.2 kmh ENE 4.8 mph7.7 kmh 30.24 in1024.0 mb 0.00 in0.0 mm 0.00 in0.0 mm 0.00 in0.0 mm
06:20 PM 49.9°F9.9°C 43.7°F6.5°C 79% 2.3 mph ENE3.7 kmh ENE 4.8 mph7.7 kmh 30.24 in1024.0 mb 0.00 in0.0 mm 0.00 in0.0 mm 0.00 in0.0 mm
06:15 PM 50.1°F10.1°C 43.5°F6.4°C 78% 2.3 mph ENE3.7 kmh ENE 3.9 mph6.3 kmh 30.24 in1024.0 mb 0.00 in0.0 mm 0.00 in0.0 mm 0.00 in0.0 mm
06:10 PM 50.3°F10.2°C 43.7°F6.5°C 78% 2.7 mph NE4.3 kmh NE 5.4 mph8.7 kmh 30.24 in1024.0 mb 0.00 in0.0 mm 0.00 in0.0 mm 0.00 in0.0 mm
06:05 PM 50.6°F10.3°C 43.7°F6.5°C 77% 3.4 mph NE5.5 kmh NE 5.4 mph8.7 kmh 30.24 in1024.0 mb 0.00 in0.0 mm 0.00 in0.0 mm 0.00 in0.0 mm
06:00 PM 50.8°F10.4°C 43.9°F6.6°C 77% 3.5 mph ENE5.6 kmh ENE 4.8 mph7.7 kmh 30.24 in1024.0 mb 0.00 in0.0 mm 0.00 in0.0 mm 0.00 in0.0 mm
05:55 PM 51.0°F10.6°C 43.7°F6.5°C 76% 3.8 mph ENE6.1 kmh ENE 5.1 mph8.2 kmh 30.24 in1024.0 mb 0.00 in0.0 mm 0.00 in0.0 mm 0.00 in0.0 mm
05:50 PM 51.2°F10.7°C 43.9°F6.6°C 76% 3.7 mph NE6.0 kmh NE 5.1 mph8.2 kmh 30.24 in1024.0 mb 0.00 in0.0 mm 0.00 in0.0 mm 0.00 in0.0 mm
05:45 PM 51.3°F10.7°C 43.7°F6.5°C 75% 3.0 mph NE4.8 kmh NE 4.5 mph7.2 kmh 30.24 in1024.0 mb 0.00 in0.0 mm 0.00 in0.0 mm 0.00 in0.0 mm
05:40 PM 51.7°F10.9°C 44.0°F6.7°C 75% 3.0 mph NE4.8 kmh NE 4.5 mph7.2 kmh 30.24 in1024.0 mb 0.00 in0.0 mm 0.00 in0.0 mm 0.00 in0.0 mm
05:35 PM 51.9°F11.1°C 44.2°F6.8°C 75% 2.8 mph ENE4.5 kmh ENE 4.5 mph7.2 kmh 30.24 in1024.0 mb 0.00 in0.0 mm 0.00 in0.0 mm 0.00 in0.0 mm
05:30 PM 52.3°F11.3°C 44.2°F6.8°C 74% 3.4 mph NE5.5 kmh NE 4.8 mph7.7 kmh 30.24 in1024.0 mb 0.00 in0.0 mm 0.00 in0.0 mm 0.00 in0.0 mm
05:25 PM 52.6°F11.4°C 44.6°F7.0°C 74% 3.2 mph NE5.1 kmh NE 4.8 mph7.7 kmh 30.24 in1024.0 mb 0.00 in0.0 mm 0.00 in0.0 mm 0.00 in0.0 mm
05:20 PM 53.2°F11.8°C 44.7°F7.1°C 73% 3.2 mph ENE5.1 kmh ENE 7.1 mph11.4 kmh 30.24 in1024.0 mb 0.00 in0.0 mm 0.00 in0.0 mm 0.00 in0.0 mm
05:15 PM 53.3°F11.8°C 44.9°F7.2°C 73% 3.7 mph ENE6.0 kmh ENE 7.1 mph11.4 kmh 30.24 in1024.0 mb 0.00 in0.0 mm 0.00 in0.0 mm 0.00 in0.0 mm
05:10 PM 53.9°F12.2°C 45.0°F7.2°C 72% 3.6 mph ENE5.8 kmh ENE 5.4 mph8.7 kmh 30.24 in1024.0 mb 0.00 in0.0 mm 0.00 in0.0 mm 0.00 in0.0 mm
05:05 PM 54.0°F12.2°C 45.2°F7.3°C 72% 4.1 mph NE6.6 kmh NE 6.2 mph10.0 kmh 30.24 in1024.0 mb 0.00 in0.0 mm 0.00 in0.0 mm 0.00 in0.0 mm
05:00 PM 54.4°F12.4°C 45.2°F7.3°C 71% 4.0 mph NE6.4 kmh NE 6.2 mph10.0 kmh 30.24 in1024.0 mb 0.00 in0.0 mm 0.00 in0.0 mm 0.00 in0.0 mm
04:55 PM 55.0°F12.8°C 45.7°F7.6°C 71% 3.3 mph ENE5.3 kmh ENE 6.2 mph10.0 kmh 30.24 in1024.0 mb 0.00 in0.0 mm 0.00 in0.0 mm 0.00 in0.0 mm
04:50 PM 55.3°F12.9°C 45.7°F7.6°C 70% 3.7 mph ENE6.0 kmh ENE 6.5 mph10.5 kmh 30.24 in1024.0 mb 0.00 in0.0 mm 0.00 in0.0 mm 0.00 in0.0 mm
04:45 PM 56.0°F13.3°C 46.0°F7.8°C 69% 4.2 mph ENE6.8 kmh ENE 6.5 mph10.5 kmh 30.24 in1024.0 mb 0.00 in0.0 mm 0.00 in0.0 mm 0.00 in0.0 mm
04:40 PM 56.2°F13.4°C 46.2°F7.9°C 69% 4.2 mph ENE6.8 kmh ENE 5.7 mph9.2 kmh 30.24 in1024.0 mb 0.00 in0.0 mm 0.00 in0.0 mm 0.00 in0.0 mm
04:35 PM 56.8°F13.8°C 46.7°F8.2°C 69% 4.8 mph ENE7.7 kmh ENE 8.0 mph12.9 kmh 30.24 in1024.0 mb 0.00 in0.0 mm 0.00 in0.0 mm 0.00 in0.0 mm
04:30 PM 57.3°F14.1°C 46.8°F8.2°C 68% 5.2 mph ENE8.4 kmh ENE 8.0 mph12.9 kmh 30.24 in1024.0 mb 0.00 in0.0 mm 0.00 in0.0 mm 0.00 in0.0 mm
04:25 PM 57.3°F14.1°C 46.8°F8.2°C 68% 5.1 mph NE8.2 kmh NE 7.4 mph11.9 kmh 30.24 in1024.0 mb 0.00 in0.0 mm 0.00 in0.0 mm 0.00 in0.0 mm
04:20 PM 57.8°F14.3°C 46.9°F8.3°C 67% 5.7 mph NE9.2 kmh NE 8.0 mph12.9 kmh 30.24 in1024.0 mb 0.00 in0.0 mm 0.00 in0.0 mm 0.00 in0.0 mm
04:15 PM 58.2°F14.6°C 47.3°F8.5°C 67% 6.4 mph NE10.3 kmh NE 8.6 mph13.8 kmh 30.24 in1024.0 mb 0.00 in0.0 mm 0.00 in0.0 mm 0.00 in0.0 mm
04:10 PM 58.2°F14.6°C 47.3°F8.5°C 67% 6.5 mph ENE10.5 kmh ENE 10.1 mph16.3 kmh 30.24 in1024.0 mb 0.00 in0.0 mm 0.00 in0.0 mm 0.00 in0.0 mm
04:05 PM 58.7°F14.8°C 47.8°F8.8°C 67% 5.7 mph ENE9.2 kmh ENE 10.1 mph16.3 kmh 30.24 in1024.0 mb 0.00 in0.0 mm 0.00 in0.0 mm 0.00 in0.0 mm
04:00 PM 58.9°F14.9°C 48.0°F8.9°C 67% 4.9 mph NE7.9 kmh NE 7.7 mph12.4 kmh 30.24 in1024.0 mb 0.00 in0.0 mm 0.00 in0.0 mm 0.00 in0.0 mm
03:55 PM 58.9°F14.9°C 48.0°F8.9°C 67% 4.7 mph NE7.6 kmh NE 7.7 mph12.4 kmh 30.24 in1024.0 mb 0.00 in0.0 mm 0.00 in0.0 mm 0.00 in0.0 mm
03:50 PM 59.1°F15.1°C 48.1°F8.9°C 67% 4.1 mph NE6.6 kmh NE 6.2 mph10.0 kmh 30.24 in1024.0 mb 0.00 in0.0 mm 0.00 in0.0 mm 0.00 in0.0 mm
03:45 PM 59.3°F15.2°C 48.3°F9.1°C 67% 5.0 mph ENE8.0 kmh ENE 9.5 mph15.3 kmh 30.24 in1024.0 mb 0.00 in0.0 mm 0.00 in0.0 mm 0.00 in0.0 mm
03:40 PM 59.1°F15.1°C 48.1°F8.9°C 67% 5.8 mph ENE9.3 kmh ENE 9.5 mph15.3 kmh 30.24 in1024.0 mb 0.00 in0.0 mm 0.00 in0.0 mm 0.00 in0.0 mm
03:35 PM 59.1°F15.1°C 48.1°F8.9°C 67% 6.0 mph ENE9.7 kmh ENE 8.9 mph14.3 kmh 30.24 in1024.0 mb 0.00 in0.0 mm 0.00 in0.0 mm 0.00 in0.0 mm
03:30 PM 59.3°F15.2°C 48.3°F9.1°C 67% 5.4 mph NE8.7 kmh NE 8.9 mph14.3 kmh 30.24 in1024.0 mb 0.00 in0.0 mm 0.00 in0.0 mm 0.00 in0.0 mm
03:25 PM 59.5°F15.3°C 48.5°F9.2°C 67% 4.3 mph N6.9 kmh N 5.4 mph8.7 kmh 30.24 in1024.0 mb 0.00 in0.0 mm 0.00 in0.0 mm 0.00 in0.0 mm
03:20 PM 59.5°F15.3°C 48.5°F9.2°C 67% 5.5 mph NNE8.9 kmh NNE 7.7 mph12.4 kmh 30.24 in1024.0 mb 0.00 in0.0 mm 0.00 in0.0 mm 0.00 in0.0 mm
03:15 PM 59.5°F15.3°C 48.5°F9.2°C 67% 6.5 mph NE10.5 kmh NE 8.0 mph12.9 kmh 30.24 in1024.0 mb 0.00 in0.0 mm 0.00 in0.0 mm 0.00 in0.0 mm
03:10 PM 59.8°F15.4°C 48.4°F9.1°C 66% 6.8 mph NE10.9 kmh NE 9.5 mph15.3 kmh 30.24 in1024.0 mb 0.00 in0.0 mm 0.00 in0.0 mm 0.00 in0.0 mm
03:05 PM 60.2°F15.7°C 48.8°F9.3°C 66% 6.3 mph NE10.1 kmh NE 9.5 mph15.3 kmh 30.24 in1024.0 mb 0.00 in0.0 mm 0.00 in0.0 mm 0.00 in0.0 mm
03:00 PM 60.3°F15.7°C 48.9°F9.4°C 66% 7.3 mph NNE11.7 kmh NNE 10.4 mph16.7 kmh 30.24 in1024.0 mb 0.00 in0.0 mm 0.00 in0.0 mm 0.00 in0.0 mm
02:55 PM 60.3°F15.7°C 48.5°F9.2°C 65% 7.4 mph NE11.9 kmh NE 10.4 mph16.7 kmh 30.24 in1024.0 mb 0.00 in0.0 mm 0.00 in0.0 mm 0.00 in0.0 mm
02:50 PM 60.5°F15.8°C 48.7°F9.3°C 65% 5.6 mph ENE9.0 kmh ENE 8.3 mph13.4 kmh 30.24 in1024.0 mb 0.00 in0.0 mm 0.00 in0.0 mm 0.00 in0.0 mm
02:45 PM 60.3°F15.7°C 48.5°F9.2°C 65% 5.7 mph ENE9.2 kmh ENE 8.3 mph13.4 kmh 30.24 in1024.0 mb 0.00 in0.0 mm 0.00 in0.0 mm 0.00 in0.0 mm
02:40 PM 60.3°F15.7°C 48.5°F9.2°C 65% 6.2 mph ENE10.0 kmh ENE 8.3 mph13.4 kmh 30.24 in1024.0 mb 0.00 in0.0 mm 0.00 in0.0 mm 0.00 in0.0 mm
02:35 PM 60.3°F15.7°C 48.5°F9.2°C 65% 5.2 mph ENE8.4 kmh ENE 7.7 mph12.4 kmh 30.24 in1024.0 mb 0.00 in0.0 mm 0.00 in0.0 mm 0.00 in0.0 mm
02:30 PM 60.3°F15.7°C 48.9°F9.4°C 66% 6.8 mph E10.9 kmh E 13.1 mph21.1 kmh 30.24 in1024.0 mb 0.00 in0.0 mm 0.00 in0.0 mm 0.00 in0.0 mm
02:25 PM 60.2°F15.7°C 48.8°F9.3°C 66% 7.2 mph ENE11.6 kmh ENE 13.1 mph21.1 kmh 30.24 in1024.0 mb 0.00 in0.0 mm 0.00 in0.0 mm 0.00 in0.0 mm
02:20 PM 60.0°F15.6°C 49.0°F9.4°C 67% 6.0 mph NE9.7 kmh NE 9.5 mph15.3 kmh 30.24 in1024.0 mb 0.00 in0.0 mm 0.00 in0.0 mm 0.00 in0.0 mm
02:15 PM 59.8°F15.4°C 48.8°F9.3°C 67% 6.7 mph NE10.8 kmh NE 10.7 mph17.2 kmh 30.24 in1024.0 mb 0.00 in0.0 mm 0.00 in0.0 mm 0.00 in0.0 mm
02:10 PM 59.5°F15.3°C 48.9°F9.4°C 68% 7.7 mph NE12.4 kmh NE 11.3 mph18.2 kmh 30.24 in1024.0 mb 0.00 in0.0 mm 0.00 in0.0 mm 0.00 in0.0 mm
02:05 PM 59.3°F15.2°C 48.7°F9.3°C 68% 8.7 mph NE14.0 kmh NE 11.6 mph18.7 kmh 30.24 in1024.0 mb 0.00 in0.0 mm 0.00 in0.0 mm 0.00 in0.0 mm
02:00 PM 59.3°F15.2°C 48.7°F9.3°C 68% 7.5 mph NE12.1 kmh NE 11.6 mph18.7 kmh 30.27 in1025.1 mb 0.00 in0.0 mm 0.00 in0.0 mm 0.00 in0.0 mm
01:55 PM 59.8°F15.4°C 48.8°F9.3°C 67% 7.7 mph E12.4 kmh E 13.7 mph22.0 kmh 30.27 in1025.1 mb 0.00 in0.0 mm 0.00 in0.0 mm 0.00 in0.0 mm
01:50 PM 60.2°F15.7°C 49.2°F9.6°C 67% 8.3 mph ENE13.4 kmh ENE 13.7 mph22.0 kmh 30.27 in1025.1 mb 0.00 in0.0 mm 0.00 in0.0 mm 0.00 in0.0 mm
01:45 PM 60.3°F15.7°C 49.7°F9.8°C 68% 7.2 mph ENE11.6 kmh ENE 8.9 mph14.3 kmh 30.24 in1024.0 mb 0.00 in0.0 mm 0.00 in0.0 mm 0.00 in0.0 mm
01:40 PM 60.2°F15.7°C 49.6°F9.8°C 68% 5.4 mph NE8.7 kmh NE 8.3 mph13.4 kmh 30.24 in1024.0 mb 0.00 in0.0 mm 0.00 in0.0 mm 0.00 in0.0 mm
01:35 PM 60.2°F15.7°C 49.6°F9.8°C 68% 5.3 mph E8.5 kmh E 8.0 mph12.9 kmh 30.24 in1024.0 mb 0.00 in0.0 mm 0.00 in0.0 mm 0.00 in0.0 mm
01:30 PM 59.6°F15.3°C 49.1°F9.5°C 68% 5.5 mph E8.9 kmh E 7.1 mph11.4 kmh 30.24 in1024.0 mb 0.00 in0.0 mm 0.00 in0.0 mm 0.00 in0.0 mm
01:25 PM 59.8°F15.4°C 49.2°F9.6°C 68% 5.7 mph NE9.2 kmh NE 9.8 mph15.8 kmh 30.24 in1024.0 mb 0.00 in0.0 mm 0.00 in0.0 mm 0.00 in0.0 mm
01:20 PM 60.2°F15.7°C 49.2°F9.6°C 67% 6.6 mph NE10.6 kmh NE 9.8 mph15.8 kmh 30.24 in1024.0 mb 0.00 in0.0 mm 0.00 in0.0 mm 0.00 in0.0 mm
01:15 PM 60.7°F15.9°C 49.7°F9.8°C 67% 5.9 mph NE9.5 kmh NE 9.8 mph15.8 kmh 30.24 in1024.0 mb 0.00 in0.0 mm 0.00 in0.0 mm 0.00 in0.0 mm
01:10 PM 60.9°F16.1°C 50.3°F10.2°C 68% 4.3 mph NNE6.9 kmh NNE 6.2 mph10.0 kmh 30.24 in1024.0 mb 0.00 in0.0 mm 0.00 in0.0 mm 0.00 in0.0 mm
01:05 PM 61.1°F16.2°C 50.4°F10.2°C 68% 5.4 mph NNE8.7 kmh NNE 7.4 mph11.9 kmh 30.24 in1024.0 mb 0.00 in0.0 mm 0.00 in0.0 mm 0.00 in0.0 mm
01:00 PM 60.7°F15.9°C 50.1°F10.1°C 68% 5.1 mph NE8.2 kmh NE 7.4 mph11.9 kmh 30.24 in1024.0 mb 0.00 in0.0 mm 0.00 in0.0 mm 0.00 in0.0 mm
12:55 PM 60.0°F15.6°C 49.0°F9.4°C 67% 3.9 mph ENE6.3 kmh ENE 6.2 mph10.0 kmh 30.24 in1024.0 mb 0.00 in0.0 mm 0.00 in0.0 mm 0.00 in0.0 mm
12:50 PM 60.5°F15.8°C 49.5°F9.7°C 67% 4.1 mph ENE6.6 kmh ENE 6.2 mph10.0 kmh 30.24 in1024.0 mb 0.00 in0.0 mm 0.00 in0.0 mm 0.00 in0.0 mm
12:45 PM 60.7°F15.9°C 49.7°F9.8°C 67% 3.8 mph ENE6.1 kmh ENE 4.8 mph7.7 kmh 30.27 in1025.1 mb 0.00 in0.0 mm 0.00 in0.0 mm 0.00 in0.0 mm
12:40 PM 61.1°F16.2°C 50.0°F10.0°C 67% 4.1 mph NE6.6 kmh NE 7.4 mph11.9 kmh 30.27 in1025.1 mb 0.00 in0.0 mm 0.00 in0.0 mm 0.00 in0.0 mm
12:35 PM 61.6°F16.4°C 50.1°F10.1°C 66% 4.5 mph NNE7.2 kmh NNE 8.0 mph12.9 kmh 30.27 in1025.1 mb 0.00 in0.0 mm 0.00 in0.0 mm 0.00 in0.0 mm
12:30 PM 62.2°F16.8°C 50.7°F10.4°C 66% 4.4 mph NE7.1 kmh NE 8.0 mph12.9 kmh 30.27 in1025.1 mb 0.00 in0.0 mm 0.00 in0.0 mm 0.00 in0.0 mm
12:25 PM 62.3°F16.8°C 51.2°F10.7°C 67% 4.5 mph NE7.2 kmh NE 7.4 mph11.9 kmh 30.27 in1025.1 mb 0.00 in0.0 mm 0.00 in0.0 mm 0.00 in0.0 mm
12:20 PM 62.2°F16.8°C 51.1°F10.6°C 67% 4.0 mph ENE6.4 kmh ENE 7.4 mph11.9 kmh 30.27 in1025.1 mb 0.00 in0.0 mm 0.00 in0.0 mm 0.00 in0.0 mm
12:15 PM 62.0°F16.7°C 50.9°F10.5°C 67% 3.9 mph E6.3 kmh E 5.4 mph8.7 kmh 30.27 in1025.1 mb 0.00 in0.0 mm 0.00 in0.0 mm 0.00 in0.0 mm
12:10 PM 61.8°F16.6°C 50.7°F10.4°C 67% 4.0 mph NE6.4 kmh NE 5.7 mph9.2 kmh 30.27 in1025.1 mb 0.00 in0.0 mm 0.00 in0.0 mm 0.00 in0.0 mm
12:05 PM 61.6°F16.4°C 50.5°F10.3°C 67% 3.8 mph NE6.1 kmh NE 5.7 mph9.2 kmh 30.27 in1025.1 mb 0.00 in0.0 mm 0.00 in0.0 mm 0.00 in0.0 mm
12:00 PM 61.8°F16.6°C 50.7°F10.4°C 67% 3.6 mph ENE5.8 kmh ENE 5.4 mph8.7 kmh 30.27 in1025.1 mb 0.00 in0.0 mm 0.00 in0.0 mm 0.00 in0.0 mm
11:55 AM 62.0°F16.7°C 51.3°F10.7°C 68% 4.0 mph NE6.4 kmh NE 6.5 mph10.5 kmh 30.27 in1025.1 mb 0.00 in0.0 mm 0.00 in0.0 mm 0.00 in0.0 mm
11:50 AM 62.0°F16.7°C 51.3°F10.7°C 68% 4.2 mph NE6.8 kmh NE 6.5 mph10.5 kmh 30.27 in1025.1 mb 0.00 in0.0 mm 0.00 in0.0 mm 0.00 in0.0 mm
11:45 AM 61.6°F16.4°C 50.9°F10.5°C 68% 4.0 mph NE6.4 kmh NE 5.7 mph9.2 kmh 30.27 in1025.1 mb 0.00 in0.0 mm 0.00 in0.0 mm 0.00 in0.0 mm
11:40 AM 61.3°F16.3°C 51.0°F10.6°C 69% 4.0 mph NE6.4 kmh NE 6.5 mph10.5 kmh 30.27 in1025.1 mb 0.00 in0.0 mm 0.00 in0.0 mm 0.00 in0.0 mm
11:35 AM 61.1°F16.2°C 50.8°F10.4°C 69% 4.7 mph ENE7.6 kmh ENE 7.7 mph12.4 kmh 30.27 in1025.1 mb 0.00 in0.0 mm 0.00 in0.0 mm 0.00 in0.0 mm
11:30 AM 60.7°F15.9°C 50.9°F10.5°C 70% 4.4 mph E7.1 kmh E 7.7 mph12.4 kmh 30.27 in1025.1 mb 0.00 in0.0 mm 0.00 in0.0 mm 0.00 in0.0 mm
11:25 AM 60.3°F15.7°C 50.5°F10.3°C 70% 3.7 mph ENE6.0 kmh ENE 5.4 mph8.7 kmh 30.27 in1025.1 mb 0.00 in0.0 mm 0.00 in0.0 mm 0.00 in0.0 mm
11:20 AM 60.0°F15.6°C 50.6°F10.3°C 71% 4.5 mph ENE7.2 kmh ENE 8.0 mph12.9 kmh 30.27 in1025.1 mb 0.00 in0.0 mm 0.00 in0.0 mm 0.00 in0.0 mm
11:15 AM 59.6°F15.3°C 50.2°F10.1°C 71% 4.5 mph ENE7.2 kmh ENE 8.0 mph12.9 kmh 30.27 in1025.1 mb 0.00 in0.0 mm 0.00 in0.0 mm 0.00 in0.0 mm
11:10 AM 59.3°F15.2°C 50.2°F10.1°C 72% 5.2 mph NE8.4 kmh NE 8.0 mph12.9 kmh 30.27 in1025.1 mb 0.00 in0.0 mm 0.00 in0.0 mm 0.00 in0.0 mm
11:05 AM 58.9°F14.9°C 49.9°F9.9°C 72% 6.6 mph NE10.6 kmh NE 9.2 mph14.8 kmh 30.27 in1025.1 mb 0.00 in0.0 mm 0.00 in0.0 mm 0.00 in0.0 mm
11:00 AM 58.5°F14.7°C 49.6°F9.8°C 72% 6.8 mph ENE10.9 kmh ENE 9.2 mph14.8 kmh 30.27 in1025.1 mb 0.00 in0.0 mm 0.00 in0.0 mm 0.00 in0.0 mm
10:55 AM 58.0°F14.4°C 49.4°F9.7°C 73% 6.2 mph NE10.0 kmh NE 9.2 mph14.8 kmh 30.27 in1025.1 mb 0.00 in0.0 mm 0.00 in0.0 mm 0.00 in0.0 mm
10:50 AM 57.7°F14.3°C 49.1°F9.5°C 73% 6.0 mph NNE9.7 kmh NNE 8.3 mph13.4 kmh 30.27 in1025.1 mb 0.00 in0.0 mm 0.00 in0.0 mm 0.00 in0.0 mm
10:45 AM 57.1°F13.9°C 48.9°F9.4°C 74% 4.4 mph NE7.1 kmh NE 6.5 mph10.5 kmh 30.27 in1025.1 mb 0.00 in0.0 mm 0.00 in0.0 mm 0.00 in0.0 mm
10:40 AM 57.1°F13.9°C 48.9°F9.4°C 74% 4.6 mph NE7.4 kmh NE 7.7 mph12.4 kmh 30.27 in1025.1 mb 0.00 in0.0 mm 0.00 in0.0 mm 0.00 in0.0 mm
10:35 AM 56.8°F13.8°C 48.6°F9.2°C 74% 5.9 mph NE9.5 kmh NE 8.9 mph14.3 kmh 30.27 in1025.1 mb 0.00 in0.0 mm 0.00 in0.0 mm 0.00 in0.0 mm
10:30 AM 56.4°F13.6°C 48.2°F9.0°C 74% 6.8 mph NE10.9 kmh NE 8.9 mph14.3 kmh 30.27 in1025.1 mb 0.00 in0.0 mm 0.00 in0.0 mm 0.00 in0.0 mm
10:25 AM 56.2°F13.4°C 48.4°F9.1°C 75% 5.7 mph NE9.2 kmh NE 8.0 mph12.9 kmh 30.27 in1025.1 mb 0.00 in0.0 mm 0.00 in0.0 mm 0.00 in0.0 mm
10:20 AM 56.0°F13.3°C 48.2°F9.0°C 75% 5.7 mph ENE9.2 kmh ENE 8.0 mph12.9 kmh 30.27 in1025.1 mb 0.00 in0.0 mm 0.00 in0.0 mm 0.00 in0.0 mm
10:15 AM 55.7°F13.2°C 48.6°F9.2°C 77% 4.6 mph ENE7.4 kmh ENE 7.4 mph11.9 kmh 30.27 in1025.1 mb 0.00 in0.0 mm 0.00 in0.0 mm 0.00 in0.0 mm
10:10 AM 55.3°F12.9°C 48.2°F9.0°C 77% 5.5 mph ENE8.9 kmh ENE 9.5 mph15.3 kmh 30.27 in1025.1 mb 0.00 in0.0 mm 0.00 in0.0 mm 0.00 in0.0 mm
10:05 AM 55.0°F12.8°C 47.9°F8.8°C 77% 7.6 mph ENE12.2 kmh ENE 9.8 mph15.8 kmh 30.27 in1025.1 mb 0.00 in0.0 mm 0.00 in0.0 mm 0.00 in0.0 mm
10:00 AM 54.6°F12.6°C 47.9°F8.8°C 78% 7.7 mph E12.4 kmh E 10.4 mph16.7 kmh 30.27 in1025.1 mb 0.00 in0.0 mm 0.00 in0.0 mm 0.00 in0.0 mm
09:55 AM 54.2°F12.3°C 47.9°F8.8°C 79% 7.6 mph E12.2 kmh E 11.3 mph18.2 kmh 30.27 in1025.1 mb 0.00 in0.0 mm 0.00 in0.0 mm 0.00 in0.0 mm
09:50 AM 53.7°F12.1°C 47.7°F8.7°C 80% 8.1 mph ENE13.0 kmh ENE 11.3 mph18.2 kmh 30.27 in1025.1 mb 0.00 in0.0 mm 0.00 in0.0 mm 0.00 in0.0 mm
09:45 AM 53.5°F11.9°C 47.5°F8.6°C 80% 8.5 mph NE13.7 kmh NE 11.3 mph18.2 kmh 30.27 in1025.1 mb 0.00 in0.0 mm 0.00 in0.0 mm 0.00 in0.0 mm
09:40 AM 53.3°F11.8°C 47.6°F8.7°C 81% 7.9 mph NE12.7 kmh NE 11.3 mph18.2 kmh 30.27 in1025.1 mb 0.00 in0.0 mm 0.00 in0.0 mm 0.00 in0.0 mm
09:35 AM 52.8°F11.6°C 47.4°F8.6°C 82% 7.8 mph E12.6 kmh E 11.3 mph18.2 kmh 30.27 in1025.1 mb 0.00 in0.0 mm 0.00 in0.0 mm 0.00 in0.0 mm
09:30 AM 52.4°F11.3°C 47.1°F8.4°C 82% 8.8 mph ENE14.2 kmh ENE 12.5 mph20.1 kmh 30.27 in1025.1 mb 0.00 in0.0 mm 0.00 in0.0 mm 0.00 in0.0 mm
09:25 AM 52.1°F11.2°C 47.1°F8.4°C 83% 8.3 mph ENE13.4 kmh ENE 12.5 mph20.1 kmh 30.27 in1025.1 mb 0.00 in0.0 mm 0.00 in0.0 mm 0.00 in0.0 mm
09:20 AM 51.5°F10.8°C 46.9°F8.3°C 84% 7.2 mph E11.6 kmh E 10.7 mph17.2 kmh 30.27 in1025.1 mb 0.00 in0.0 mm 0.00 in0.0 mm 0.00 in0.0 mm
09:15 AM 51.0°F10.6°C 46.6°F8.1°C 85% 7.5 mph E12.1 kmh E 12.8 mph20.6 kmh 30.27 in1025.1 mb 0.00 in0.0 mm 0.00 in0.0 mm 0.00 in0.0 mm
09:10 AM 50.6°F10.3°C 46.3°F7.9°C 85% 7.6 mph E12.2 kmh E 12.8 mph20.6 kmh 30.27 in1025.1 mb 0.00 in0.0 mm 0.00 in0.0 mm 0.00 in0.0 mm
09:05 AM 49.7°F9.8°C 45.7°F7.6°C 86% 5.7 mph ENE9.2 kmh ENE 12.2 mph19.6 kmh 30.27 in1025.1 mb 0.00 in0.0 mm 0.00 in0.0 mm 0.00 in0.0 mm
09:00 AM 49.4°F9.7°C 45.4°F7.4°C 86% 5.6 mph ENE9.0 kmh ENE 8.9 mph14.3 kmh 30.27 in1025.1 mb 0.00 in0.0 mm 0.00 in0.0 mm 0.00 in0.0 mm
08:55 AM 48.8°F9.3°C 44.8°F7.1°C 86% 6.1 mph ENE9.8 kmh ENE 8.9 mph14.3 kmh 30.27 in1025.1 mb 0.00 in0.0 mm 0.00 in0.0 mm 0.00 in0.0 mm
08:50 AM 48.3°F9.1°C 44.3°F6.8°C 86% 6.3 mph ENE10.1 kmh ENE 8.3 mph13.4 kmh 30.27 in1025.1 mb 0.00 in0.0 mm 0.00 in0.0 mm 0.00 in0.0 mm
08:45 AM 48.1°F8.9°C 44.1°F6.7°C 86% 6.4 mph NE10.3 kmh NE 8.6 mph13.8 kmh 30.27 in1025.1 mb 0.00 in0.0 mm 0.00 in0.0 mm 0.00 in0.0 mm
08:40 AM 47.8°F8.8°C 44.1°F6.7°C 87% 5.7 mph NE9.2 kmh NE 8.6 mph13.8 kmh 30.27 in1025.1 mb 0.00 in0.0 mm 0.00 in0.0 mm 0.00 in0.0 mm
08:35 AM 47.2°F8.4°C 43.5°F6.4°C 87% 4.6 mph NE7.4 kmh NE 8.3 mph13.4 kmh 30.27 in1025.1 mb 0.00 in0.0 mm 0.00 in0.0 mm 0.00 in0.0 mm
08:30 AM 46.8°F8.2°C 43.2°F6.2°C 87% 5.1 mph ENE8.2 kmh ENE 8.3 mph13.4 kmh 30.27 in1025.1 mb 0.00 in0.0 mm 0.00 in0.0 mm 0.00 in0.0 mm
08:25 AM 46.5°F8.1°C 42.8°F6.0°C 87% 5.2 mph ENE8.4 kmh ENE 8.3 mph13.4 kmh 30.27 in1025.1 mb 0.00 in0.0 mm 0.00 in0.0 mm 0.00 in0.0 mm
08:20 AM 46.1°F7.8°C 42.5°F5.8°C 87% 4.8 mph ENE7.7 kmh ENE 8.3 mph13.4 kmh 30.27 in1025.1 mb 0.00 in0.0 mm 0.00 in0.0 mm 0.00 in0.0 mm
08:15 AM 46.1°F7.8°C 42.5°F5.8°C 87% 5.0 mph ENE8.0 kmh ENE 8.3 mph13.4 kmh 30.27 in1025.1 mb 0.00 in0.0 mm 0.00 in0.0 mm 0.00 in0.0 mm
08:10 AM 46.0°F7.8°C 42.3°F5.7°C 87% 4.2 mph ENE6.8 kmh ENE 5.4 mph8.7 kmh 30.27 in1025.1 mb 0.00 in0.0 mm 0.00 in0.0 mm 0.00 in0.0 mm
08:05 AM 46.0°F7.8°C 42.3°F5.7°C 87% 4.1 mph ENE6.6 kmh ENE 4.8 mph7.7 kmh 30.27 in1025.1 mb 0.00 in0.0 mm 0.00 in0.0 mm 0.00 in0.0 mm
08:00 AM 45.8°F7.7°C 42.1°F5.6°C 87% 3.9 mph E6.3 kmh E 4.8 mph7.7 kmh 30.27 in1025.1 mb 0.00 in0.0 mm 0.00 in0.0 mm 0.00 in0.0 mm
07:55 AM 45.8°F7.7°C 42.1°F5.6°C 87% 4.5 mph E7.2 kmh E 7.1 mph11.4 kmh 30.27 in1025.1 mb 0.00 in0.0 mm 0.00 in0.0 mm 0.00 in0.0 mm
07:50 AM 45.6°F7.6°C 41.9°F5.5°C 87% 5.0 mph E8.0 kmh E 7.1 mph11.4 kmh 30.27 in1025.1 mb 0.00 in0.0 mm 0.00 in0.0 mm 0.00 in0.0 mm
07:45 AM 45.6°F7.6°C 41.9°F5.5°C 87% 4.1 mph ENE6.6 kmh ENE 6.5 mph10.5 kmh 30.27 in1025.1 mb 0.00 in0.0 mm 0.00 in0.0 mm 0.00 in0.0 mm
07:40 AM 45.4°F7.4°C 41.8°F5.4°C 87% 3.6 mph NE5.8 kmh NE 5.1 mph8.2 kmh 30.27 in1025.1 mb 0.00 in0.0 mm 0.00 in0.0 mm 0.00 in0.0 mm
07:35 AM 45.2°F7.3°C 41.3°F5.2°C 86% 3.7 mph NE6.0 kmh NE 6.2 mph10.0 kmh 30.27 in1025.1 mb 0.00 in0.0 mm 0.00 in0.0 mm 0.00 in0.0 mm
07:30 AM 45.2°F7.3°C 41.3°F5.2°C 86% 4.0 mph ENE6.4 kmh ENE 6.2 mph10.0 kmh 30.27 in1025.1 mb 0.00 in0.0 mm 0.00 in0.0 mm 0.00 in0.0 mm
07:25 AM 45.2°F7.3°C 41.3°F5.2°C 86% 4.2 mph E6.8 kmh E 5.4 mph8.7 kmh 30.27 in1025.1 mb 0.00 in0.0 mm 0.00 in0.0 mm 0.00 in0.0 mm
07:20 AM 45.0°F7.2°C 41.1°F5.1°C 86% 3.7 mph E6.0 kmh E 5.4 mph8.7 kmh 30.27 in1025.1 mb 0.00 in0.0 mm 0.00 in0.0 mm 0.00 in0.0 mm
07:15 AM 45.0°F7.2°C 41.1°F5.1°C 86% 3.7 mph E6.0 kmh E 7.4 mph11.9 kmh 30.27 in1025.1 mb 0.00 in0.0 mm 0.00 in0.0 mm 0.00 in0.0 mm
07:10 AM 45.0°F7.2°C 41.1°F5.1°C 86% 4.7 mph E7.6 kmh E 7.4 mph11.9 kmh 30.27 in1025.1 mb 0.00 in0.0 mm 0.00 in0.0 mm 0.00 in0.0 mm
07:05 AM 45.0°F7.2°C 41.1°F5.1°C 86% 4.4 mph E7.1 kmh E 7.1 mph11.4 kmh 30.27 in1025.1 mb 0.00 in0.0 mm 0.00 in0.0 mm 0.00 in0.0 mm
07:00 AM 44.9°F7.2°C 40.9°F4.9°C 86% 4.6 mph ENE7.4 kmh ENE 7.4 mph11.9 kmh 30.27 in1025.1 mb 0.00 in0.0 mm 0.00 in0.0 mm 0.00 in0.0 mm
06:55 AM 44.9°F7.2°C 40.9°F4.9°C 86% 5.1 mph ENE8.2 kmh ENE 7.4 mph11.9 kmh 30.27 in1025.1 mb 0.00 in0.0 mm 0.00 in0.0 mm 0.00 in0.0 mm
06:50 AM 44.9°F7.2°C 40.6°F4.8°C 85% 4.3 mph E6.9 kmh E 6.5 mph10.5 kmh 30.27 in1025.1 mb 0.00 in0.0 mm 0.00 in0.0 mm 0.00 in0.0 mm
06:45 AM 45.0°F7.2°C 40.8°F4.9°C 85% 4.2 mph E6.8 kmh E 6.5 mph10.5 kmh 30.27 in1025.1 mb 0.00 in0.0 mm 0.00 in0.0 mm 0.00 in0.0 mm
06:40 AM 45.0°F7.2°C 40.8°F4.9°C 85% 3.9 mph E6.3 kmh E 5.7 mph9.2 kmh 30.27 in1025.1 mb 0.00 in0.0 mm 0.00 in0.0 mm 0.00 in0.0 mm
06:35 AM 45.0°F7.2°C 40.8°F4.9°C 85% 3.6 mph E5.8 kmh E 5.7 mph9.2 kmh 30.27 in1025.1 mb 0.00 in0.0 mm 0.00 in0.0 mm 0.00 in0.0 mm
06:30 AM 45.2°F7.3°C 40.7°F4.8°C 84% 4.4 mph E7.1 kmh E 7.1 mph11.4 kmh 30.24 in1024.0 mb 0.00 in0.0 mm 0.00 in0.0 mm 0.00 in0.0 mm
06:25 AM 45.4°F7.4°C 40.9°F4.9°C 84% 5.0 mph E8.0 kmh E 7.1 mph11.4 kmh 30.24 in1024.0 mb 0.00 in0.0 mm 0.00 in0.0 mm 0.00 in0.0 mm
06:20 AM 45.6°F7.6°C 41.0°F5.0°C 84% 4.9 mph E7.9 kmh E 7.1 mph11.4 kmh 30.24 in1024.0 mb 0.00 in0.0 mm 0.00 in0.0 mm 0.00 in0.0 mm
06:15 AM 45.6°F7.6°C 41.0°F5.0°C 84% 5.0 mph ENE8.0 kmh ENE 6.2 mph10.0 kmh 30.27 in1025.1 mb 0.00 in0.0 mm 0.00 in0.0 mm 0.00 in0.0 mm
06:10 AM 45.8°F7.7°C 41.2°F5.1°C 84% 4.6 mph ENE7.4 kmh ENE 6.2 mph10.0 kmh 30.27 in1025.1 mb 0.00 in0.0 mm 0.00 in0.0 mm 0.00 in0.0 mm
06:05 AM 46.0°F7.8°C 41.4°F5.2°C 84% 4.1 mph ENE6.6 kmh ENE 5.7 mph9.2 kmh 30.27 in1025.1 mb 0.00 in0.0 mm 0.00 in0.0 mm 0.00 in0.0 mm
06:00 AM 46.1°F7.8°C 41.6°F5.3°C 84% 5.4 mph ENE8.7 kmh ENE 8.6 mph13.8 kmh 30.27 in1025.1 mb 0.00 in0.0 mm 0.00 in0.0 mm 0.00 in0.0 mm
05:55 AM 46.1°F7.8°C 41.6°F5.3°C 84% 6.2 mph ENE10.0 kmh ENE 8.6 mph13.8 kmh 30.27 in1025.1 mb 0.00 in0.0 mm 0.00 in0.0 mm 0.00 in0.0 mm
05:50 AM 46.3°F7.9°C 41.7°F5.4°C 84% 6.1 mph ENE9.8 kmh ENE 10.4 mph16.7 kmh 30.27 in1025.1 mb 0.00 in0.0 mm 0.00 in0.0 mm 0.00 in0.0 mm
05:45 AM 46.3°F7.9°C 41.7°F5.4°C 84% 6.8 mph ENE10.9 kmh ENE 10.4 mph16.7 kmh 30.24 in1024.0 mb 0.00 in0.0 mm 0.00 in0.0 mm 0.00 in0.0 mm
05:40 AM 46.5°F8.1°C 41.9°F5.5°C 84% 6.7 mph ENE10.8 kmh ENE 10.4 mph16.7 kmh 30.24 in1024.0 mb 0.00 in0.0 mm 0.00 in0.0 mm 0.00 in0.0 mm
05:35 AM 46.5°F8.1°C 41.9°F5.5°C 84% 5.8 mph ENE9.3 kmh ENE 7.1 mph11.4 kmh 30.24 in1024.0 mb 0.00 in0.0 mm 0.00 in0.0 mm 0.00 in0.0 mm
05:30 AM 46.7°F8.2°C 42.1°F5.6°C 84% 6.3 mph ENE10.1 kmh ENE 9.5 mph15.3 kmh 30.24 in1024.0 mb 0.00 in0.0 mm 0.00 in0.0 mm 0.00 in0.0 mm
05:25 AM 46.7°F8.2°C 41.8°F5.4°C 83% 6.3 mph ENE10.1 kmh ENE 9.5 mph15.3 kmh 30.24 in1024.0 mb 0.00 in0.0 mm 0.00 in0.0 mm 0.00 in0.0 mm
05:20 AM 46.8°F8.2°C 42.0°F5.6°C 83% 6.3 mph ENE10.1 kmh ENE 8.3 mph13.4 kmh 30.24 in1024.0 mb 0.00 in0.0 mm 0.00 in0.0 mm 0.00 in0.0 mm
05:15 AM 47.0°F8.3°C 42.1°F5.6°C 83% 6.0 mph ENE9.7 kmh ENE 8.0 mph12.9 kmh 30.24 in1024.0 mb 0.00 in0.0 mm 0.00 in0.0 mm 0.00 in0.0 mm
05:10 AM 47.0°F8.3°C 42.1°F5.6°C 83% 5.5 mph ENE8.9 kmh ENE 8.0 mph12.9 kmh 30.24 in1024.0 mb 0.00 in0.0 mm 0.00 in0.0 mm 0.00 in0.0 mm
05:05 AM 47.2°F8.4°C 42.3°F5.7°C 83% 5.4 mph ENE8.7 kmh ENE 8.3 mph13.4 kmh 30.24 in1024.0 mb 0.00 in0.0 mm 0.00 in0.0 mm 0.00 in0.0 mm
05:00 AM 47.2°F8.4°C 42.3°F5.7°C 83% 6.1 mph ENE9.8 kmh ENE 8.3 mph13.4 kmh 30.24 in1024.0 mb 0.00 in0.0 mm 0.00 in0.0 mm 0.00 in0.0 mm
04:55 AM 47.4°F8.6°C 42.5°F5.8°C 83% 5.6 mph E9.0 kmh E 8.3 mph13.4 kmh 30.24 in1024.0 mb 0.00 in0.0 mm 0.00 in0.0 mm 0.00 in0.0 mm
04:50 AM 47.6°F8.7°C 42.7°F5.9°C 83% 5.8 mph E9.3 kmh E 9.2 mph14.8 kmh 30.24 in1024.0 mb 0.00 in0.0 mm 0.00 in0.0 mm 0.00 in0.0 mm
04:45 AM 47.8°F8.8°C 42.8°F6.0°C 83% 5.7 mph ENE9.2 kmh ENE 9.2 mph14.8 kmh 30.24 in1024.0 mb 0.00 in0.0 mm 0.00 in0.0 mm 0.00 in0.0 mm
04:40 AM 47.9°F8.8°C 43.0°F6.1°C 83% 5.7 mph ENE9.2 kmh ENE 10.0 mph16.1 kmh 30.24 in1024.0 mb 0.00 in0.0 mm 0.00 in0.0 mm 0.00 in0.0 mm
04:35 AM 47.9°F8.8°C 43.0°F6.1°C 83% 6.6 mph ENE10.6 kmh ENE 10.0 mph16.1 kmh 30.24 in1024.0 mb 0.00 in0.0 mm 0.00 in0.0 mm 0.00 in0.0 mm
04:30 AM 48.1°F8.9°C 43.2°F6.2°C 83% 7.9 mph ENE12.7 kmh ENE 10.4 mph16.7 kmh 30.24 in1024.0 mb 0.00 in0.0 mm 0.00 in0.0 mm 0.00 in0.0 mm
04:25 AM 48.3°F9.1°C 43.4°F6.3°C 83% 8.0 mph ENE12.9 kmh ENE 9.5 mph15.3 kmh 30.24 in1024.0 mb 0.00 in0.0 mm 0.00 in0.0 mm 0.00 in0.0 mm
04:20 AM 48.7°F9.3°C 43.7°F6.5°C 83% 8.0 mph ENE12.9 kmh ENE 10.1 mph16.3 kmh 30.24 in1024.0 mb 0.00 in0.0 mm 0.00 in0.0 mm 0.00 in0.0 mm
04:15 AM 48.7°F9.3°C 43.7°F6.5°C 83% 7.7 mph ENE12.4 kmh ENE 10.1 mph16.3 kmh 30.24 in1024.0 mb 0.00 in0.0 mm 0.00 in0.0 mm 0.00 in0.0 mm
04:10 AM 49.0°F9.4°C 43.8°F6.6°C 82% 7.0 mph ENE11.3 kmh ENE 9.5 mph15.3 kmh 30.24 in1024.0 mb 0.00 in0.0 mm 0.00 in0.0 mm 0.00 in0.0 mm
04:05 AM 49.0°F9.4°C 43.8°F6.6°C 82% 6.1 mph NE9.8 kmh NE 8.9 mph14.3 kmh 30.24 in1024.0 mb 0.00 in0.0 mm 0.00 in0.0 mm 0.00 in0.0 mm
04:00 AM 49.2°F9.6°C 44.2°F6.8°C 83% 5.4 mph NE8.7 kmh NE 7.7 mph12.4 kmh 30.24 in1024.0 mb 0.00 in0.0 mm 0.00 in0.0 mm 0.00 in0.0 mm
03:55 AM 49.4°F9.7°C 44.4°F6.9°C 83% 4.8 mph NE7.7 kmh NE 7.7 mph12.4 kmh 30.24 in1024.0 mb 0.00 in0.0 mm 0.00 in0.0 mm 0.00 in0.0 mm
03:50 AM 49.5°F9.7°C 44.6°F7.0°C 83% 5.2 mph NE8.4 kmh NE 9.5 mph15.3 kmh 30.24 in1024.0 mb 0.00 in0.0 mm 0.00 in0.0 mm 0.00 in0.0 mm
03:45 AM 49.5°F9.7°C 44.9°F7.2°C 84% 6.2 mph NE10.0 kmh NE 9.5 mph15.3 kmh 30.24 in1024.0 mb 0.00 in0.0 mm 0.00 in0.0 mm 0.00 in0.0 mm
03:40 AM 49.7°F9.8°C 45.1°F7.3°C 84% 6.6 mph NE10.6 kmh NE 8.9 mph14.3 kmh 30.24 in1024.0 mb 0.00 in0.0 mm 0.00 in0.0 mm 0.00 in0.0 mm
03:35 AM 49.7°F9.8°C 45.1°F7.3°C 84% 6.0 mph NE9.7 kmh NE 8.9 mph14.3 kmh 30.24 in1024.0 mb 0.00 in0.0 mm 0.00 in0.0 mm 0.00 in0.0 mm
03:30 AM 49.7°F9.8°C 45.1°F7.3°C 84% 5.2 mph ENE8.4 kmh ENE 8.6 mph13.8 kmh 30.24 in1024.0 mb 0.00 in0.0 mm 0.00 in0.0 mm 0.00 in0.0 mm
03:25 AM 49.7°F9.8°C 45.4°F7.4°C 85% 4.2 mph ENE6.8 kmh ENE 5.4 mph8.7 kmh 30.24 in1024.0 mb 0.00 in0.0 mm 0.00 in0.0 mm 0.00 in0.0 mm
03:20 AM 49.7°F9.8°C 45.4°F7.4°C 85% 3.5 mph E5.6 kmh E 5.4 mph8.7 kmh 30.24 in1024.0 mb 0.00 in0.0 mm 0.00 in0.0 mm 0.00 in0.0 mm
03:15 AM 49.7°F9.8°C 45.4°F7.4°C 85% 3.4 mph E5.5 kmh E 4.8 mph7.7 kmh 30.24 in1024.0 mb 0.00 in0.0 mm 0.00 in0.0 mm 0.00 in0.0 mm
03:10 AM 49.5°F9.7°C 45.2°F7.3°C 85% 3.4 mph E5.5 kmh E 4.8 mph7.7 kmh 30.24 in1024.0 mb 0.00 in0.0 mm 0.00 in0.0 mm 0.00 in0.0 mm
03:05 AM 49.5°F9.7°C 45.2°F7.3°C 85% 3.1 mph E5.0 kmh E 4.2 mph6.8 kmh 30.24 in1024.0 mb 0.00 in0.0 mm 0.00 in0.0 mm 0.00 in0.0 mm
03:00 AM 49.5°F9.7°C 45.2°F7.3°C 85% 3.5 mph E5.6 kmh E 4.5 mph7.2 kmh 30.24 in1024.0 mb 0.00 in0.0 mm 0.00 in0.0 mm 0.00 in0.0 mm
02:55 AM 49.5°F9.7°C 45.5°F7.5°C 86% 3.5 mph E5.6 kmh E 4.8 mph7.7 kmh 30.24 in1024.0 mb 0.00 in0.0 mm 0.00 in0.0 mm 0.00 in0.0 mm
02:50 AM 49.5°F9.7°C 45.5°F7.5°C 86% 2.4 mph E3.9 kmh E 4.8 mph7.7 kmh 30.24 in1024.0 mb 0.00 in0.0 mm 0.00 in0.0 mm 0.00 in0.0 mm
02:45 AM 49.5°F9.7°C 45.5°F7.5°C 86% 2.1 mph ENE3.4 kmh ENE 4.5 mph7.2 kmh 30.24 in1024.0 mb 0.00 in0.0 mm 0.00 in0.0 mm 0.00 in0.0 mm
02:40 AM 49.5°F9.7°C 45.5°F7.5°C 86% 2.8 mph ENE4.5 kmh ENE 3.6 mph5.8 kmh 30.24 in1024.0 mb 0.00 in0.0 mm 0.00 in0.0 mm 0.00 in0.0 mm
02:35 AM 49.5°F9.7°C 45.5°F7.5°C 86% 3.5 mph ENE5.6 kmh ENE 6.0 mph9.7 kmh 30.24 in1024.0 mb 0.00 in0.0 mm 0.00 in0.0 mm 0.00 in0.0 mm
02:30 AM 49.4°F9.7°C 45.0°F7.2°C 85% 4.1 mph ENE6.6 kmh ENE 6.0 mph9.7 kmh 30.24 in1024.0 mb 0.00 in0.0 mm 0.00 in0.0 mm 0.00 in0.0 mm
02:25 AM 49.4°F9.7°C 45.0°F7.2°C 85% 3.2 mph ENE5.1 kmh ENE 5.7 mph9.2 kmh 30.24 in1024.0 mb 0.00 in0.0 mm 0.00 in0.0 mm 0.00 in0.0 mm
02:20 AM 49.4°F9.7°C 45.0°F7.2°C 85% 2.4 mph ENE3.9 kmh ENE 5.7 mph9.2 kmh 30.24 in1024.0 mb 0.00 in0.0 mm 0.00 in0.0 mm 0.00 in0.0 mm
02:15 AM 49.5°F9.7°C 45.2°F7.3°C 85% 2.6 mph E4.2 kmh E 3.6 mph5.8 kmh 30.24 in1024.0 mb 0.00 in0.0 mm 0.00 in0.0 mm 0.00 in0.0 mm
02:10 AM 49.5°F9.7°C 45.2°F7.3°C 85% 2.8 mph E4.5 kmh E 4.2 mph6.8 kmh 30.24 in1024.0 mb 0.00 in0.0 mm 0.00 in0.0 mm 0.00 in0.0 mm
02:05 AM 49.5°F9.7°C 45.2°F7.3°C 85% 2.5 mph E4.0 kmh E 4.2 mph6.8 kmh 30.24 in1024.0 mb 0.00 in0.0 mm 0.00 in0.0 mm 0.00 in0.0 mm
02:00 AM 49.7°F9.8°C 45.4°F7.4°C 85% 3.0 mph E4.8 kmh E 5.1 mph8.2 kmh 30.24 in1024.0 mb 0.00 in0.0 mm 0.00 in0.0 mm 0.00 in0.0 mm
01:55 AM 49.9°F9.9°C 45.6°F7.6°C 85% 2.9 mph E4.7 kmh E 5.1 mph8.2 kmh 30.24 in1024.0 mb 0.00 in0.0 mm 0.00 in0.0 mm 0.00 in0.0 mm
01:50 AM 49.9°F9.9°C 45.6°F7.6°C 85% 2.8 mph ENE4.5 kmh ENE 3.6 mph5.8 kmh 30.24 in1024.0 mb 0.00 in0.0 mm 0.00 in0.0 mm 0.00 in0.0 mm
01:45 AM 50.1°F10.1°C 45.4°F7.4°C 84% 3.1 mph ENE5.0 kmh ENE 4.2 mph6.8 kmh 30.24 in1024.0 mb 0.00 in0.0 mm 0.00 in0.0 mm 0.00 in0.0 mm
01:40 AM 50.3°F10.2°C 45.6°F7.6°C 84% 3.4 mph E5.5 kmh E 4.5 mph7.2 kmh 30.24 in1024.0 mb 0.00 in0.0 mm 0.00 in0.0 mm 0.00 in0.0 mm
01:35 AM 50.3°F10.2°C 45.6°F7.6°C 84% 3.3 mph E5.3 kmh E 4.8 mph7.7 kmh 30.24 in1024.0 mb 0.00 in0.0 mm 0.00 in0.0 mm 0.00 in0.0 mm
01:30 AM 50.5°F10.3°C 45.8°F7.7°C 84% 3.4 mph E5.5 kmh E 4.8 mph7.7 kmh 30.24 in1024.0 mb 0.00 in0.0 mm 0.00 in0.0 mm 0.00 in0.0 mm
01:25 AM 50.6°F10.3°C 45.7°F7.6°C 83% 3.4 mph E5.5 kmh E 4.5 mph7.2 kmh 30.24 in1024.0 mb 0.00 in0.0 mm 0.00 in0.0 mm 0.00 in0.0 mm
01:20 AM 50.8°F10.4°C 45.8°F7.7°C 83% 4.1 mph ENE6.6 kmh ENE 6.5 mph10.5 kmh 30.24 in1024.0 mb 0.00 in0.0 mm 0.00 in0.0 mm 0.00 in0.0 mm
01:15 AM 51.2°F10.7°C 46.2°F7.9°C 83% 4.5 mph NE7.2 kmh NE 7.1 mph11.4 kmh 30.21 in1023.0 mb 0.00 in0.0 mm 0.00 in0.0 mm 0.00 in0.0 mm
01:10 AM 51.3°F10.7°C 46.4°F8.0°C 83% 4.4 mph ENE7.1 kmh ENE 7.1 mph11.4 kmh 30.21 in1023.0 mb 0.00 in0.0 mm 0.00 in0.0 mm 0.00 in0.0 mm
01:05 AM 51.3°F10.7°C 46.4°F8.0°C 83% 4.5 mph ENE7.2 kmh ENE 8.0 mph12.9 kmh 30.24 in1024.0 mb 0.00 in0.0 mm 0.00 in0.0 mm 0.00 in0.0 mm
01:00 AM 51.5°F10.8°C 46.5°F8.1°C 83% 5.3 mph NE8.5 kmh NE 8.0 mph12.9 kmh 30.24 in1024.0 mb 0.00 in0.0 mm 0.00 in0.0 mm 0.00 in0.0 mm
12:55 AM 51.5°F10.8°C 46.5°F8.1°C 83% 6.0 mph ENE9.7 kmh ENE 10.1 mph16.3 kmh 30.24 in1024.0 mb 0.00 in0.0 mm 0.00 in0.0 mm 0.00 in0.0 mm
12:50 AM 51.5°F10.8°C 46.5°F8.1°C 83% 5.9 mph NE9.5 kmh NE 10.1 mph16.3 kmh 30.24 in1024.0 mb 0.00 in0.0 mm 0.00 in0.0 mm 0.00 in0.0 mm
12:45 AM 51.5°F10.8°C 46.9°F8.3°C 84% 6.1 mph NE9.8 kmh NE 11.6 mph18.7 kmh 30.24 in1024.0 mb 0.00 in0.0 mm 0.00 in0.0 mm 0.00 in0.0 mm
12:40 AM 51.5°F10.8°C 46.9°F8.3°C 84% 5.9 mph NE9.5 kmh NE 11.6 mph18.7 kmh 30.24 in1024.0 mb 0.00 in0.0 mm 0.00 in0.0 mm 0.00 in0.0 mm
12:35 AM 51.5°F10.8°C 46.9°F8.3°C 84% 4.9 mph NE7.9 kmh NE 9.5 mph15.3 kmh 30.24 in1024.0 mb 0.00 in0.0 mm 0.00 in0.0 mm 0.00 in0.0 mm
12:30 AM 51.5°F10.8°C 46.9°F8.3°C 84% 4.2 mph NE6.8 kmh NE 9.5 mph15.3 kmh 30.21 in1023.0 mb 0.00 in0.0 mm 0.00 in0.0 mm 0.00 in0.0 mm
12:25 AM 51.7°F10.9°C 46.7°F8.2°C 83% 4.3 mph NE6.9 kmh NE 6.2 mph10.0 kmh 30.21 in1023.0 mb 0.00 in0.0 mm 0.00 in0.0 mm 0.00 in0.0 mm
12:20 AM 51.7°F10.9°C 46.7°F8.2°C 83% 5.2 mph ENE8.4 kmh ENE 7.4 mph11.9 kmh 30.21 in1023.0 mb 0.00 in0.0 mm 0.00 in0.0 mm 0.00 in0.0 mm
12:15 AM 51.7°F10.9°C 46.7°F8.2°C 83% 6.0 mph E9.7 kmh E 7.7 mph12.4 kmh 30.24 in1024.0 mb 0.00 in0.0 mm 0.00 in0.0 mm 0.00 in0.0 mm
12:10 AM 51.7°F10.9°C 46.7°F8.2°C 83% 5.3 mph ENE8.5 kmh ENE 7.7 mph12.4 kmh 30.24 in1024.0 mb 0.00 in0.0 mm 0.00 in0.0 mm 0.00 in0.0 mm
12:05 AM 51.5°F10.8°C 46.5°F8.1°C 83% 4.6 mph ENE7.4 kmh ENE 5.7 mph9.2 kmh 30.24 in1024.0 mb 0.00 in0.0 mm 0.00 in0.0 mm 0.00 in0.0 mm
12:00 AM 51.5°F10.8°C 46.5°F8.1°C 83% 4.8 mph ENE7.7 kmh ENE 7.4 mph11.9 kmh 30.24 in1024.0 mb 0.00 in0.0 mm 0.00 in0.0 mm 0.00 in0.0 mm